sensor_id;sensor_type;location;lat;lon;timestamp;pressure;altitude;pressure_sealevel;temperature;humidity
71996;BME280;59862;47.732;7.346;2022-07-30T00:01:20;98182.33;;;19.25;46.26
71996;BME280;59862;47.732;7.346;2022-07-30T00:03:48;98179.94;;;19.27;46.43
71996;BME280;59862;47.732;7.346;2022-07-30T00:06:15;98179.14;;;19.30;46.23
71996;BME280;59862;47.732;7.346;2022-07-30T00:08:42;98174.95;;;19.33;46.38
71996;BME280;59862;47.732;7.346;2022-07-30T00:11:10;98175.74;;;19.34;46.54
71996;BME280;59862;47.732;7.346;2022-07-30T00:13:38;98176.34;;;19.30;46.31
71996;BME280;59862;47.732;7.346;2022-07-30T00:16:06;98174.95;;;19.26;46.82
71996;BME280;59862;47.732;7.346;2022-07-30T00:18:33;98185.11;;;19.28;46.61
71996;BME280;59862;47.732;7.346;2022-07-30T00:21:01;98182.33;;;19.28;46.55
71996;BME280;59862;47.732;7.346;2022-07-30T00:23:28;98177.34;;;19.28;46.14
71996;BME280;59862;47.732;7.346;2022-07-30T00:25:57;98170.56;;;19.32;45.94
71996;BME280;59862;47.732;7.346;2022-07-30T00:28:25;98171.95;;;19.36;45.95
71996;BME280;59862;47.732;7.346;2022-07-30T00:30:52;98170.36;;;19.35;46.19
71996;BME280;59862;47.732;7.346;2022-07-30T00:33:20;98172.95;;;19.38;46.16
71996;BME280;59862;47.732;7.346;2022-07-30T00:35:47;98176.92;;;19.40;46.25
71996;BME280;59862;47.732;7.346;2022-07-30T00:38:15;98171.55;;;19.38;45.98
71996;BME280;59862;47.732;7.346;2022-07-30T00:40:42;98174.94;;;19.41;46.04
71996;BME280;59862;47.732;7.346;2022-07-30T00:43:17;98180.32;;;19.36;45.98
71996;BME280;59862;47.732;7.346;2022-07-30T00:45:46;98175.16;;;19.27;46.16
71996;BME280;59862;47.732;7.346;2022-07-30T00:48:14;98177.95;;;19.24;46.23
71996;BME280;59862;47.732;7.346;2022-07-30T00:50:42;98178.14;;;19.25;46.38
71996;BME280;59862;47.732;7.346;2022-07-30T00:53:09;98177.55;;;19.22;46.67
71996;BME280;59862;47.732;7.346;2022-07-30T00:55:37;98177.95;;;19.20;46.57
71996;BME280;59862;47.732;7.346;2022-07-30T00:58:04;98176.95;;;19.19;46.46
71996;BME280;59862;47.732;7.346;2022-07-30T01:00:32;98177.16;;;19.16;46.54
71996;BME280;59862;47.732;7.346;2022-07-30T01:02:59;98172.18;;;19.16;46.70
71996;BME280;59862;47.732;7.346;2022-07-30T01:05:27;98179.34;;;19.13;46.70
71996;BME280;59862;47.732;7.346;2022-07-30T01:07:54;98172.78;;;19.08;46.91
71996;BME280;59862;47.732;7.346;2022-07-30T01:10:22;98188.52;;;19.03;46.98
71996;BME280;59862;47.732;7.346;2022-07-30T01:12:49;98182.34;;;19.00;47.07
71996;BME280;59862;47.732;7.346;2022-07-30T01:15:18;98174.97;;;18.94;47.27
71996;BME280;59862;47.732;7.346;2022-07-30T01:17:48;98186.32;;;18.92;47.30
71996;BME280;59862;47.732;7.346;2022-07-30T01:20:27;98185.33;;;18.90;47.52
71996;BME280;59862;47.732;7.346;2022-07-30T01:23:03;98179.75;;;18.87;47.66
71996;BME280;59862;47.732;7.346;2022-07-30T01:26:02;98177.33;;;18.85;47.80
71996;BME280;59862;47.732;7.346;2022-07-30T01:28:32;98175.53;;;18.80;47.85
71996;BME280;59862;47.732;7.346;2022-07-30T01:31:02;98169.16;;;18.68;48.15
71996;BME280;59862;47.732;7.346;2022-07-30T01:33:31;98179.70;;;18.62;48.35
71996;BME280;59862;47.732;7.346;2022-07-30T01:36:00;98175.88;;;18.57;48.45
71996;BME280;59862;47.732;7.346;2022-07-30T01:38:30;98173.88;;;18.50;48.66
71996;BME280;59862;47.732;7.346;2022-07-30T01:40:59;98176.45;;;18.46;48.85
71996;BME280;59862;47.732;7.346;2022-07-30T01:43:28;98183.60;;;18.40;48.96
71996;BME280;59862;47.732;7.346;2022-07-30T01:45:58;98178.62;;;18.35;49.23
71996;BME280;59862;47.732;7.346;2022-07-30T01:48:27;98183.38;;;18.31;49.58
71996;BME280;59862;47.732;7.346;2022-07-30T01:50:57;98183.97;;;18.27;49.64
71996;BME280;59862;47.732;7.346;2022-07-30T01:53:27;98195.05;;;18.20;49.80
71996;BME280;59862;47.732;7.346;2022-07-30T01:55:56;98191.86;;;18.18;49.73
71996;BME280;59862;47.732;7.346;2022-07-30T01:58:27;98189.25;;;18.12;49.97
71996;BME280;59862;47.732;7.346;2022-07-30T02:00:56;98188.27;;;18.14;50.01
71996;BME280;59862;47.732;7.346;2022-07-30T02:03:25;98198.61;;;18.14;49.82
71996;BME280;59862;47.732;7.346;2022-07-30T02:06:00;98193.63;;;18.13;50.08
71996;BME280;59862;47.732;7.346;2022-07-30T02:08:39;98196.41;;;18.10;50.22
71996;BME280;59862;47.732;7.346;2022-07-30T02:11:09;98205.34;;;18.09;50.17
71996;BME280;59862;47.732;7.346;2022-07-30T02:13:49;98208.71;;;18.05;50.36
71996;BME280;59862;47.732;7.346;2022-07-30T02:16:23;98202.16;;;18.07;50.34
71996;BME280;59862;47.732;7.346;2022-07-30T02:19:01;98204.53;;;18.05;50.28
71996;BME280;59862;47.732;7.346;2022-07-30T02:21:28;98213.47;;;18.01;50.49
71996;BME280;59862;47.732;7.346;2022-07-30T02:23:58;98207.29;;;17.98;50.64
71996;BME280;59862;47.732;7.346;2022-07-30T02:26:27;98210.85;;;17.95;50.75
71996;BME280;59862;47.732;7.346;2022-07-30T02:28:57;98212.63;;;17.93;50.79
71996;BME280;59862;47.732;7.346;2022-07-30T02:31:27;98206.84;;;17.89;50.85
71996;BME280;59862;47.732;7.346;2022-07-30T02:33:58;98214.18;;;17.84;51.05
71996;BME280;59862;47.732;7.346;2022-07-30T02:36:28;98209.78;;;17.79;51.13
71996;BME280;59862;47.732;7.346;2022-07-30T02:38:58;98215.73;;;17.78;51.30
71996;BME280;59862;47.732;7.346;2022-07-30T02:41:29;98206.96;;;17.72;51.37
71996;BME280;59862;47.732;7.346;2022-07-30T02:43:58;98211.52;;;17.70;51.55
71996;BME280;59862;47.732;7.346;2022-07-30T02:46:27;98209.13;;;17.69;51.69
71996;BME280;59862;47.732;7.346;2022-07-30T02:48:58;98208.72;;;17.67;51.69
71996;BME280;59862;47.732;7.346;2022-07-30T02:51:26;98208.72;;;17.67;51.70
71996;BME280;59862;47.732;7.346;2022-07-30T02:53:56;98215.03;;;17.64;51.79
71996;BME280;59862;47.732;7.346;2022-07-30T02:56:25;98212.64;;;17.62;52.06
71996;BME280;59862;47.732;7.346;2022-07-30T02:58:56;98215.80;;;17.61;52.02
71996;BME280;59862;47.732;7.346;2022-07-30T03:01:25;98215.94;;;17.55;52.22
71996;BME280;59862;47.732;7.346;2022-07-30T03:03:53;98223.69;;;17.55;52.27
71996;BME280;59862;47.732;7.346;2022-07-30T03:06:22;98218.90;;;17.52;52.30
71996;BME280;59862;47.732;7.346;2022-07-30T03:08:51;98216.89;;;17.49;52.50
71996;BME280;59862;47.732;7.346;2022-07-30T03:11:21;98218.86;;;17.45;52.63
71996;BME280;59862;47.732;7.346;2022-07-30T03:13:50;98225.39;;;17.43;52.67
71996;BME280;59862;47.732;7.346;2022-07-30T03:16:19;98217.83;;;17.40;52.78
71996;BME280;59862;47.732;7.346;2022-07-30T03:18:49;98222.77;;;17.37;52.92
71996;BME280;59862;47.732;7.346;2022-07-30T03:21:20;98223.75;;;17.35;53.05
71996;BME280;59862;47.732;7.346;2022-07-30T03:23:49;98221.33;;;17.30;53.30
71996;BME280;59862;47.732;7.346;2022-07-30T03:26:20;98220.71;;;17.27;53.38
71996;BME280;59862;47.732;7.346;2022-07-30T03:28:49;98221.87;;;17.22;53.49
71996;BME280;59862;47.732;7.346;2022-07-30T03:31:17;98218.08;;;17.21;53.73
71996;BME280;59862;47.732;7.346;2022-07-30T03:33:46;98216.84;;;17.15;53.80
71996;BME280;59862;47.732;7.346;2022-07-30T03:36:17;98217.82;;;17.13;53.96
71996;BME280;59862;47.732;7.346;2022-07-30T03:38:47;98215.61;;;17.08;54.11
71996;BME280;59862;47.732;7.346;2022-07-30T03:41:15;98217.17;;;17.06;54.17
71996;BME280;59862;47.732;7.346;2022-07-30T03:43:43;98222.91;;;17.03;54.34
71996;BME280;59862;47.732;7.346;2022-07-30T03:46:11;98232.01;;;17.00;54.43
71996;BME280;59862;47.732;7.346;2022-07-30T03:48:40;98236.56;;;16.99;54.54
71996;BME280;59862;47.732;7.346;2022-07-30T03:51:08;98235.94;;;16.96;54.60
71996;BME280;59862;47.732;7.346;2022-07-30T03:53:36;98232.74;;;16.94;54.78
71996;BME280;59862;47.732;7.346;2022-07-30T03:56:06;98238.48;;;16.91;54.86
71996;BME280;59862;47.732;7.346;2022-07-30T03:58:36;98241.19;;;16.88;55.00
71996;BME280;59862;47.732;7.346;2022-07-30T04:01:04;98238.20;;;16.87;55.18
71996;BME280;59862;47.732;7.346;2022-07-30T04:03:33;98241.16;;;16.84;55.09
71996;BME280;59862;47.732;7.346;2022-07-30T04:06:00;98244.11;;;16.82;55.35
71996;BME280;59862;47.732;7.346;2022-07-30T04:08:28;98238.69;;;16.75;55.49
71996;BME280;59862;47.732;7.346;2022-07-30T04:10:56;98240.67;;;16.75;55.64
71996;BME280;59862;47.732;7.346;2022-07-30T04:13:24;98238.87;;;16.73;55.75
71996;BME280;59862;47.732;7.346;2022-07-30T04:16:10;98238.87;;;16.73;55.85
71996;BME280;59862;47.732;7.346;2022-07-30T04:18:41;98239.84;;;16.71;56.02
71996;BME280;59862;47.732;7.346;2022-07-30T04:21:10;98239.00;;;16.67;56.15
71996;BME280;59862;47.732;7.346;2022-07-30T04:23:39;98241.98;;;16.68;56.19
71996;BME280;59862;47.732;7.346;2022-07-30T04:26:09;98239.42;;;16.69;56.12
71996;BME280;59862;47.732;7.346;2022-07-30T04:28:38;98239.21;;;16.68;56.07
71996;BME280;59862;47.732;7.346;2022-07-30T04:31:06;98236.81;;;16.66;56.15
71996;BME280;59862;47.732;7.346;2022-07-30T04:33:33;98232.06;;;16.67;56.28
71996;BME280;59862;47.732;7.346;2022-07-30T04:36:10;98237.86;;;16.71;56.10
71996;BME280;59862;47.732;7.346;2022-07-30T04:38:34;98241.47;;;16.75;56.07
71996;BME280;59862;47.732;7.346;2022-07-30T04:41:02;98243.27;;;16.77;55.96
71996;BME280;59862;47.732;7.346;2022-07-30T04:43:30;98253.20;;;16.78;55.97
71996;BME280;59862;47.732;7.346;2022-07-30T04:45:57;98244.52;;;16.84;55.88
71996;BME280;59862;47.732;7.346;2022-07-30T04:48:25;98256.67;;;16.89;55.56
71996;BME280;59862;47.732;7.346;2022-07-30T04:50:56;98264.27;;;16.92;55.69
71996;BME280;59862;47.732;7.346;2022-07-30T04:53:24;98261.53;;;16.95;55.62
71996;BME280;59862;47.732;7.346;2022-07-30T04:55:53;98263.96;;;17.00;55.67
71996;BME280;59862;47.732;7.346;2022-07-30T04:58:23;98272.13;;;17.03;55.58
71996;BME280;59862;47.732;7.346;2022-07-30T05:00:54;98280.48;;;17.06;55.41
71996;BME280;59862;47.732;7.346;2022-07-30T05:03:23;98286.67;;;17.09;55.55
71996;BME280;59862;47.732;7.346;2022-07-30T05:05:51;98276.95;;;17.09;55.54
71996;BME280;59862;47.732;7.346;2022-07-30T05:08:19;98274.58;;;17.11;55.46
71996;BME280;59862;47.732;7.346;2022-07-30T05:10:47;98281.56;;;17.15;55.61
71996;BME280;59862;47.732;7.346;2022-07-30T05:13:15;98290.11;;;17.16;55.40
71996;BME280;59862;47.732;7.346;2022-07-30T05:15:43;98286.91;;;17.14;55.48
71996;BME280;59862;47.732;7.346;2022-07-30T05:18:11;98286.53;;;17.16;55.59
71996;BME280;59862;47.732;7.346;2022-07-30T05:20:39;98286.95;;;17.18;55.41
71996;BME280;59862;47.732;7.346;2022-07-30T05:23:07;98285.80;;;17.22;55.70
71996;BME280;59862;47.732;7.346;2022-07-30T05:25:34;98282.28;;;17.29;55.50
71996;BME280;59862;47.732;7.346;2022-07-30T05:28:02;98280.73;;;17.35;55.31
71996;BME280;59862;47.732;7.346;2022-07-30T05:30:29;98283.95;;;17.40;55.22
71996;BME280;59862;47.732;7.346;2022-07-30T05:32:57;98287.95;;;17.43;55.08
71996;BME280;59862;47.732;7.346;2022-07-30T05:35:24;98288.59;;;17.50;54.92
71996;BME280;59862;47.732;7.346;2022-07-30T05:37:51;98286.70;;;17.57;54.71
71996;BME280;59862;47.732;7.346;2022-07-30T05:40:19;98289.50;;;17.61;54.55
71996;BME280;59862;47.732;7.346;2022-07-30T05:42:47;98285.23;;;17.70;54.78
71996;BME280;59862;47.732;7.346;2022-07-30T05:45:14;98287.70;;;17.83;54.36
71996;BME280;59862;47.732;7.346;2022-07-30T05:47:42;98293.72;;;17.92;54.13
71996;BME280;59862;47.732;7.346;2022-07-30T05:50:10;98294.98;;;18.05;53.86
71996;BME280;59862;47.732;7.346;2022-07-30T05:52:38;98288.86;;;18.13;53.81
71996;BME280;59862;47.732;7.346;2022-07-30T05:55:06;98291.09;;;18.20;53.38
71996;BME280;59862;47.732;7.346;2022-07-30T05:57:34;98291.77;;;18.30;53.35
71996;BME280;59862;47.732;7.346;2022-07-30T06:00:04;98291.24;;;18.49;53.05
71996;BME280;59862;47.732;7.346;2022-07-30T06:02:32;98293.86;;;18.58;52.51
71996;BME280;59862;47.732;7.346;2022-07-30T06:05:00;98294.11;;;18.63;51.83
71996;BME280;59862;47.732;7.346;2022-07-30T06:07:28;98297.12;;;18.71;52.01
71996;BME280;59862;47.732;7.346;2022-07-30T06:09:55;98296.13;;;18.73;52.15
71996;BME280;59862;47.732;7.346;2022-07-30T06:12:26;98289.59;;;18.82;52.08
71996;BME280;59862;47.732;7.346;2022-07-30T06:14:55;98288.78;;;18.82;51.87
71996;BME280;59862;47.732;7.346;2022-07-30T06:17:23;98294.61;;;18.90;51.62
71996;BME280;59862;47.732;7.346;2022-07-30T06:19:50;98298.99;;;18.91;51.65
71996;BME280;59862;47.732;7.346;2022-07-30T06:22:19;98292.63;;;18.97;51.75
71996;BME280;59862;47.732;7.346;2022-07-30T06:24:46;98301.41;;;19.07;51.47
71996;BME280;59862;47.732;7.346;2022-07-30T06:27:13;98301.22;;;19.13;51.52
71996;BME280;59862;47.732;7.346;2022-07-30T06:29:41;98307.77;;;19.00;51.50
71996;BME280;59862;47.732;7.346;2022-07-30T06:32:09;98301.59;;;19.00;52.07
71996;BME280;59862;47.732;7.346;2022-07-30T06:34:36;98311.17;;;19.10;52.11
71996;BME280;59862;47.732;7.346;2022-07-30T06:37:03;98311.38;;;19.15;51.69
71996;BME280;59862;47.732;7.346;2022-07-30T06:39:31;98316.75;;;19.10;51.81
71996;BME280;59862;47.732;7.346;2022-07-30T06:41:58;98319.14;;;19.12;51.98
71996;BME280;59862;47.732;7.346;2022-07-30T06:44:26;98319.54;;;19.14;52.18
71996;BME280;59862;47.732;7.346;2022-07-30T06:46:53;98319.14;;;19.15;52.12
71996;BME280;59862;47.732;7.346;2022-07-30T06:49:20;98319.55;;;19.21;52.31
71996;BME280;59862;47.732;7.346;2022-07-30T06:51:48;98322.55;;;19.32;51.98
71996;BME280;59862;47.732;7.346;2022-07-30T06:54:16;98320.36;;;19.32;51.71
71996;BME280;59862;47.732;7.346;2022-07-30T06:56:44;98326.14;;;19.44;52.03
71996;BME280;59862;47.732;7.346;2022-07-30T06:59:12;98320.17;;;19.45;51.17
71996;BME280;59862;47.732;7.346;2022-07-30T07:01:39;98329.00;;;19.58;51.43
71996;BME280;59862;47.732;7.346;2022-07-30T07:04:07;98328.59;;;19.67;51.70
71996;BME280;59862;47.732;7.346;2022-07-30T07:06:34;98332.18;;;19.74;51.33
71996;BME280;59862;47.732;7.346;2022-07-30T07:09:02;98337.16;;;19.82;51.15
71996;BME280;59862;47.732;7.346;2022-07-30T07:11:30;98334.75;;;19.94;51.15
71996;BME280;59862;47.732;7.346;2022-07-30T07:13:58;98325.55;;;20.12;50.91
71996;BME280;59862;47.732;7.346;2022-07-30T07:16:25;98332.72;;;20.27;49.99
71996;BME280;59862;47.732;7.346;2022-07-30T07:18:54;98332.30;;;20.43;50.51
71996;BME280;59862;47.732;7.346;2022-07-30T07:21:22;98333.44;;;20.60;49.89
71996;BME280;59862;47.732;7.346;2022-07-30T07:23:49;98333.98;;;20.73;49.51
71996;BME280;59862;47.732;7.346;2022-07-30T07:26:17;98329.94;;;20.88;49.25
71996;BME280;59862;47.732;7.346;2022-07-30T07:28:44;98332.84;;;21.04;48.98
71996;BME280;59862;47.732;7.346;2022-07-30T07:31:12;98325.43;;;21.09;48.93
71996;BME280;59862;47.732;7.346;2022-07-30T07:33:39;98332.36;;;21.23;48.02
71996;BME280;59862;47.732;7.346;2022-07-30T07:36:08;98337.03;;;21.40;47.80
71996;BME280;59862;47.732;7.346;2022-07-30T07:38:35;98337.98;;;21.53;47.62
71996;BME280;59862;47.732;7.346;2022-07-30T07:41:03;98341.52;;;21.60;47.71
71996;BME280;59862;47.732;7.346;2022-07-30T07:43:31;98334.65;;;21.68;46.93
71996;BME280;59862;47.732;7.346;2022-07-30T07:45:58;98337.26;;;21.90;46.58
71996;BME280;59862;47.732;7.346;2022-07-30T07:48:26;98339.69;;;22.13;46.47
71996;BME280;59862;47.732;7.346;2022-07-30T07:50:53;98338.78;;;22.24;45.62
71996;BME280;59862;47.732;7.346;2022-07-30T07:53:21;98335.38;;;22.24;46.11
71996;BME280;59862;47.732;7.346;2022-07-30T07:55:48;98338.25;;;22.36;45.55
71996;BME280;59862;47.732;7.346;2022-07-30T07:58:16;98333.05;;;22.53;45.03
71996;BME280;59862;47.732;7.346;2022-07-30T08:00:43;98331.05;;;22.69;44.90
71996;BME280;59862;47.732;7.346;2022-07-30T08:03:11;98331.58;;;22.94;44.74
71996;BME280;59862;47.732;7.346;2022-07-30T08:05:38;98337.50;;;23.15;44.00
71996;BME280;59862;47.732;7.346;2022-07-30T08:08:06;98334.38;;;23.36;42.90
71996;BME280;59862;47.732;7.346;2022-07-30T08:10:33;98331.02;;;23.49;44.33
71996;BME280;59862;47.732;7.346;2022-07-30T08:13:00;98335.52;;;23.58;41.99
71996;BME280;59862;47.732;7.346;2022-07-30T08:15:29;98333.69;;;23.94;42.21
71996;BME280;59862;47.732;7.346;2022-07-30T08:17:57;98329.84;;;24.20;40.96
71996;BME280;59862;47.732;7.346;2022-07-30T08:20:24;98343.34;;;24.40;40.20
71996;BME280;59862;47.732;7.346;2022-07-30T08:22:52;98337.77;;;24.48;39.21
71996;BME280;59862;47.732;7.346;2022-07-30T08:25:19;98334.95;;;24.68;40.01
71996;BME280;59862;47.732;7.346;2022-07-30T08:27:47;98335.38;;;24.98;39.34
71996;BME280;59862;47.732;7.346;2022-07-30T08:30:15;98335.92;;;25.01;39.64
71996;BME280;59862;47.732;7.346;2022-07-30T08:32:42;98337.95;;;25.01;39.51
71996;BME280;59862;47.732;7.346;2022-07-30T08:35:10;98335.31;;;25.02;39.19
71996;BME280;59862;47.732;7.346;2022-07-30T08:37:37;98338.95;;;25.18;39.00
71996;BME280;59862;47.732;7.346;2022-07-30T08:40:07;98336.32;;;25.19;38.00
71996;BME280;59862;47.732;7.346;2022-07-30T08:42:35;98330.86;;;25.65;37.86
71996;BME280;59862;47.732;7.346;2022-07-30T08:45:03;98335.02;;;25.93;36.09
71996;BME280;59862;47.732;7.346;2022-07-30T08:47:32;98335.81;;;25.85;36.75
71996;BME280;59862;47.732;7.346;2022-07-30T08:50:01;98327.61;;;26.15;35.57
71996;BME280;59862;47.732;7.346;2022-07-30T08:52:40;98334.93;;;26.58;35.25
71996;BME280;59862;47.732;7.346;2022-07-30T08:55:05;98329.08;;;26.28;35.93
71996;BME280;59862;47.732;7.346;2022-07-30T08:57:36;98332.80;;;26.70;33.46
71996;BME280;59862;47.732;7.346;2022-07-30T09:00:07;98332.72;;;26.86;31.86
71996;BME280;59862;47.732;7.346;2022-07-30T09:02:34;98324.83;;;26.94;30.31
71996;BME280;59862;47.732;7.346;2022-07-30T09:05:02;98326.35;;;26.90;30.77
71996;BME280;59862;47.732;7.346;2022-07-30T09:07:32;98320.88;;;27.12;30.52
71996;BME280;59862;47.732;7.346;2022-07-30T09:09:59;98330.49;;;27.27;29.54
71996;BME280;59862;47.732;7.346;2022-07-30T09:12:37;98328.44;;;27.36;30.20
71996;BME280;59862;47.732;7.346;2022-07-30T09:15:09;98325.35;;;27.30;29.97
71996;BME280;59862;47.732;7.346;2022-07-30T09:17:46;98325.45;;;26.93;30.89
71996;BME280;59862;47.732;7.346;2022-07-30T09:20:15;98329.84;;;27.48;30.13
71996;BME280;59862;47.732;7.346;2022-07-30T09:22:46;98329.91;;;27.78;30.07
71996;BME280;59862;47.732;7.346;2022-07-30T09:25:14;98331.96;;;28.08;30.26
71996;BME280;59862;47.732;7.346;2022-07-30T09:27:46;98328.14;;;28.54;29.97
71996;BME280;59862;47.732;7.346;2022-07-30T09:30:15;98327.52;;;28.71;28.84
71996;BME280;59862;47.732;7.346;2022-07-30T09:32:51;98328.77;;;28.70;28.89
71996;BME280;59862;47.732;7.346;2022-07-30T09:35:19;98331.33;;;28.78;28.59
71996;BME280;59862;47.732;7.346;2022-07-30T09:37:47;98328.77;;;28.70;27.98
71996;BME280;59862;47.732;7.346;2022-07-30T09:40:17;98336.20;;;28.77;27.84
71996;BME280;59862;47.732;7.346;2022-07-30T09:42:44;98327.52;;;28.54;28.37
71996;BME280;59862;47.732;7.346;2022-07-30T09:45:13;98329.82;;;28.64;28.65
71996;BME280;59862;47.732;7.346;2022-07-30T09:47:43;98323.45;;;28.94;28.22
71996;BME280;59862;47.732;7.346;2022-07-30T09:50:14;98324.77;;;29.29;28.56
71996;BME280;59862;47.732;7.346;2022-07-30T09:52:44;98324.38;;;29.44;28.51
71996;BME280;59862;47.732;7.346;2022-07-30T09:55:13;98324.34;;;29.13;28.31
71996;BME280;59862;47.732;7.346;2022-07-30T09:58:05;98328.81;;;28.97;28.03
71996;BME280;59862;47.732;7.346;2022-07-30T10:00:30;98331.48;;;28.96;28.46
71996;BME280;59862;47.732;7.346;2022-07-30T10:02:58;98327.31;;;29.72;27.83
71996;BME280;59862;47.732;7.346;2022-07-30T10:05:26;98328.07;;;29.63;28.23
71996;BME280;59862;47.732;7.346;2022-07-30T10:07:59;98324.98;;;29.17;27.88
71996;BME280;59862;47.732;7.346;2022-07-30T10:10:29;98329.89;;;29.43;28.18
71996;BME280;59862;47.732;7.346;2022-07-30T10:13:00;98334.09;;;29.12;28.68
71996;BME280;59862;47.732;7.346;2022-07-30T10:15:31;98323.66;;;28.83;29.06
71996;BME280;59862;47.732;7.346;2022-07-30T10:18:00;98331.56;;;28.49;30.21
71996;BME280;59862;47.732;7.346;2022-07-30T10:20:29;98329.52;;;28.15;30.72
71996;BME280;59862;47.732;7.346;2022-07-30T10:22:58;98327.63;;;27.99;31.06
71996;BME280;59862;47.732;7.346;2022-07-30T10:25:26;98319.14;;;27.23;31.19
71996;BME280;59862;47.732;7.346;2022-07-30T10:27:54;98320.03;;;27.07;32.83
71996;BME280;59862;47.732;7.346;2022-07-30T10:30:22;98325.05;;;27.07;31.98
71996;BME280;59862;47.732;7.346;2022-07-30T10:32:50;98318.65;;;26.78;32.99
71996;BME280;59862;47.732;7.346;2022-07-30T10:35:19;98318.17;;;26.59;32.72
71996;BME280;59862;47.732;7.346;2022-07-30T10:37:48;98312.75;;;26.93;32.97
71996;BME280;59862;47.732;7.346;2022-07-30T10:40:25;98309.59;;;27.12;32.87
71996;BME280;59862;47.732;7.346;2022-07-30T10:45:39;98310.32;;;27.08;31.57
71996;BME280;59862;47.732;7.346;2022-07-30T10:48:04;98310.48;;;26.88;33.19
71996;BME280;59862;47.732;7.346;2022-07-30T10:50:35;98314.51;;;26.95;33.98
71996;BME280;59862;47.732;7.346;2022-07-30T10:53:03;98311.45;;;27.10;34.00
71996;BME280;59862;47.732;7.346;2022-07-30T10:55:32;98310.38;;;26.92;33.04
71996;BME280;59862;47.732;7.346;2022-07-30T10:58:06;98310.20;;;27.11;32.24
71996;BME280;59862;47.732;7.346;2022-07-30T11:00:57;98315.11;;;27.36;33.52
71996;BME280;59862;47.732;7.346;2022-07-30T11:03:16;98318.73;;;27.62;33.51
71996;BME280;59862;47.732;7.346;2022-07-30T11:05:46;98310.63;;;27.82;31.83
71996;BME280;59862;47.732;7.346;2022-07-30T11:08:35;98313.86;;;27.75;32.53
71996;BME280;59862;47.732;7.346;2022-07-30T11:11:05;98313.38;;;27.90;31.87
71996;BME280;59862;47.732;7.346;2022-07-30T11:13:54;98312.73;;;28.33;30.92
71996;BME280;59862;47.732;7.346;2022-07-30T11:21:39;98314.72;;;29.37;29.43
71996;BME280;59862;47.732;7.346;2022-07-30T11:26:53;98307.30;;;31.49;25.81
71996;BME280;59862;47.732;7.346;2022-07-30T11:29:38;98308.03;;;32.63;24.58
71996;BME280;59862;47.732;7.346;2022-07-30T11:32:31;98303.10;;;32.01;26.16
71996;BME280;59862;47.732;7.346;2022-07-30T11:43:22;98302.94;;;29.88;27.45
71996;BME280;59862;47.732;7.346;2022-07-30T11:46:05;98304.96;;;29.78;28.60
71996;BME280;59862;47.732;7.346;2022-07-30T11:48:35;98300.16;;;29.52;28.76
71996;BME280;59862;47.732;7.346;2022-07-30T11:51:03;98301.59;;;30.02;29.38
71996;BME280;59862;47.732;7.346;2022-07-30T11:53:31;98295.30;;;30.20;29.13
71996;BME280;59862;47.732;7.346;2022-07-30T11:56:01;98303.66;;;30.28;28.55
71996;BME280;59862;47.732;7.346;2022-07-30T11:58:36;98295.26;;;29.97;28.19
71996;BME280;59862;47.732;7.346;2022-07-30T12:01:13;98299.72;;;30.31;28.53
71996;BME280;59862;47.732;7.346;2022-07-30T12:03:44;98295.78;;;30.28;29.10
71996;BME280;59862;47.732;7.346;2022-07-30T12:06:14;98298.45;;;30.45;28.36
71996;BME280;59862;47.732;7.346;2022-07-30T12:08:51;98294.67;;;30.39;28.39
71996;BME280;59862;47.732;7.346;2022-07-30T12:11:19;98291.67;;;30.06;28.11
71996;BME280;59862;47.732;7.346;2022-07-30T12:13:58;98286.37;;;31.33;27.57
71996;BME280;59862;47.732;7.346;2022-07-30T12:16:28;98291.95;;;33.88;23.54
71996;BME280;59862;47.732;7.346;2022-07-30T12:19:01;98292.20;;;33.55;24.07
71996;BME280;59862;47.732;7.346;2022-07-30T12:21:29;98285.63;;;33.49;23.72
71996;BME280;59862;47.732;7.346;2022-07-30T12:24:02;98290.31;;;32.64;25.23
71996;BME280;59862;47.732;7.346;2022-07-30T12:26:33;98282.70;;;32.65;25.05
71996;BME280;59862;47.732;7.346;2022-07-30T12:29:03;98283.67;;;32.96;24.85
71996;BME280;59862;47.732;7.346;2022-07-30T12:31:32;98286.73;;;33.37;23.61
71996;BME280;59862;47.732;7.346;2022-07-30T12:34:00;98288.52;;;33.84;23.93
71996;BME280;59862;47.732;7.346;2022-07-30T12:36:34;98285.23;;;33.77;22.70
71996;BME280;59862;47.732;7.346;2022-07-30T12:39:03;98280.16;;;32.29;24.81
71996;BME280;59862;47.732;7.346;2022-07-30T12:41:45;98281.31;;;31.98;25.80
71996;BME280;59862;47.732;7.346;2022-07-30T12:47:04;98273.39;;;30.80;26.75
71996;BME280;59862;47.732;7.346;2022-07-30T12:49:33;98268.47;;;30.90;27.42
71996;BME280;59862;47.732;7.346;2022-07-30T12:52:01;98267.03;;;30.95;26.89
71996;BME280;59862;47.732;7.346;2022-07-30T12:54:29;98270.55;;;30.80;27.42
71996;BME280;59862;47.732;7.346;2022-07-30T12:57:05;98269.59;;;30.56;27.97
71996;BME280;59862;47.732;7.346;2022-07-30T12:59:32;98267.23;;;30.54;27.33
71996;BME280;59862;47.732;7.346;2022-07-30T13:02:01;98271.03;;;30.24;28.04
71996;BME280;59862;47.732;7.346;2022-07-30T13:04:28;98263.81;;;30.59;27.83
71996;BME280;59862;47.732;7.346;2022-07-30T13:07:08;98257.80;;;30.67;26.95
71996;BME280;59862;47.732;7.346;2022-07-30T13:09:36;98259.36;;;30.36;27.48
71996;BME280;59862;47.732;7.346;2022-07-30T13:12:05;98260.65;;;30.62;27.29
71996;BME280;59862;47.732;7.346;2022-07-30T13:14:34;98261.20;;;30.94;27.21
71996;BME280;59862;47.732;7.346;2022-07-30T13:17:02;98263.83;;;31.11;27.01
71996;BME280;59862;47.732;7.346;2022-07-30T13:19:29;98259.23;;;33.29;23.91
71996;BME280;59862;47.732;7.346;2022-07-30T13:21:57;98254.41;;;35.24;21.46
71996;BME280;59862;47.732;7.346;2022-07-30T13:24:25;98258.65;;;36.14;20.61
71996;BME280;59862;47.732;7.346;2022-07-30T13:26:52;98258.00;;;36.96;19.84
71996;BME280;59862;47.732;7.346;2022-07-30T13:29:20;98262.39;;;39.08;18.85
71996;BME280;59862;47.732;7.346;2022-07-30T13:31:48;98253.95;;;39.76;17.53
71996;BME280;59862;47.732;7.346;2022-07-30T13:34:15;98259.67;;;38.62;17.91